Time;durP1;ratioP1;P1;durP2;ratioP2;P2;SDS_P1;SDS_P2;PMS_P1;PMS_P2;Temp;Humidity;BMP_temperature;BMP_pressure;BME280_temperature;BME280_humidity;BME280_pressure;Samples;Min_cycle;Max_cycle;Signal;HPM_P1;HPM_P2
2022/06/30 00:00:27;;;;;;;37.03;30.77;;;21.80;99.90;;;;;;4992256;28;20088;-56
2022/06/30 00:02:52;;;;;;;37.15;32.50;;;21.80;99.90;;;;;;4992035;28;20077;-57
2022/06/30 00:05:18;;;;;;;40.03;31.83;;;21.90;99.90;;;;;;4991995;28;20107;-56
2022/06/30 00:07:44;;;;;;;35.03;30.52;;;21.90;99.90;;;;;;4991840;28;20046;-56
2022/06/30 00:10:11;;;;;;;36.83;31.08;;;21.90;99.90;;;;;;4992265;28;20819;-55
2022/06/30 00:12:38;;;;;;;38.45;31.25;;;22.00;99.90;;;;;;4992043;28;20042;-55
2022/06/30 00:15:04;;;;;;;37.87;31.77;;;22.10;99.90;;;;;;4991827;28;20110;-56
2022/06/30 00:17:30;;;;;;;39.28;30.10;;;22.00;99.90;;;;;;4992150;28;20041;-59
2022/06/30 00:19:55;;;;;;;33.85;29.10;;;22.10;99.90;;;;;;4991770;28;20390;-55
2022/06/30 00:22:21;;;;;;;36.47;31.63;;;22.10;99.90;;;;;;4991895;28;20034;-56
2022/06/30 00:24:47;;;;;;;33.83;30.30;;;22.10;99.90;;;;;;4991704;28;20554;-55
2022/06/30 00:27:12;;;;;;;35.97;30.20;;;22.10;99.90;;;;;;4991695;28;20056;-55
2022/06/30 00:29:38;;;;;;;37.53;30.10;;;22.10;99.90;;;;;;4991471;28;20085;-56
2022/06/30 00:32:05;;;;;;;35.53;30.65;;;22.20;99.90;;;;;;4991663;28;20113;-57
2022/06/30 00:34:30;;;;;;;34.50;30.80;;;22.20;99.90;;;;;;4991628;28;20026;-56
2022/06/30 00:36:56;;;;;;;35.08;30.23;;;22.10;99.90;;;;;;4991463;28;20030;-55
2022/06/30 00:39:22;;;;;;;34.33;29.63;;;22.10;99.90;;;;;;4991660;28;20389;-55
2022/06/30 00:41:48;;;;;;;35.97;31.30;;;22.00;99.90;;;;;;4991382;28;20074;-56
2022/06/30 00:44:14;;;;;;;35.13;30.65;;;22.00;99.90;;;;;;4991510;28;20520;-56
2022/06/30 00:46:39;;;;;;;37.58;31.73;;;21.90;99.90;;;;;;4979092;28;20532;-56
2022/06/30 00:49:06;;;;;;;38.95;31.40;;;21.90;99.90;;;;;;4991217;28;20030;-56
2022/06/30 00:51:32;;;;;;;36.05;31.85;;;21.90;99.90;;;;;;4990695;28;20030;-56
2022/06/30 00:54:01;;;;;;;37.13;33.08;;;21.90;99.90;;;;;;4991117;28;20034;-55
2022/06/30 00:56:27;;;;;;;36.08;32.15;;;21.80;99.90;;;;;;4991202;28;20035;-56
2022/06/30 00:58:55;;;;;;;44.47;35.30;;;21.80;99.90;;;;;;4991162;28;20031;-56
2022/06/30 01:01:23;;;;;;;41.95;35.00;;;21.80;99.90;;;;;;4990963;28;20027;-56
2022/06/30 01:03:51;;;;;;;45.38;34.08;;;21.80;99.90;;;;;;4991183;28;20060;-56
2022/06/30 01:06:18;;;;;;;37.10;32.58;;;21.80;99.90;;;;;;4990954;28;20533;-55
2022/06/30 01:08:45;;;;;;;41.22;33.40;;;21.80;99.90;;;;;;4991008;28;20034;-55
2022/06/30 01:13:56;;;;;;;35.88;31.30;;;21.70;99.90;;;;;;4990766;28;20089;-55
2022/06/30 01:16:22;;;;;;;37.92;32.08;;;21.70;99.90;;;;;;4990662;28;20034;-56
2022/06/30 01:18:48;;;;;;;38.53;31.45;;;21.70;99.90;;;;;;4990655;28;20121;-56
2022/06/30 01:21:14;;;;;;;35.88;30.45;;;21.70;99.90;;;;;;4990876;28;20034;-56
2022/06/30 01:23:40;;;;;;;36.47;31.52;;;21.70;99.90;;;;;;4990839;28;20457;-56
2022/06/30 01:26:05;;;;;;;46.03;33.13;;;21.60;99.90;;;;;;4990612;28;20129;-56
2022/06/30 01:28:31;;;;;;;40.40;31.38;;;21.60;99.90;;;;;;5002872;28;20069;-56
2022/06/30 01:30:58;;;;;;;38.22;30.75;;;21.60;99.90;;;;;;5008126;28;20026;-56
2022/06/30 01:33:23;;;;;;;36.75;30.70;;;21.60;99.90;;;;;;5003812;28;20363;-59
2022/06/30 01:35:49;;;;;;;36.22;32.40;;;21.60;99.90;;;;;;5010381;28;20484;-55
2022/06/30 01:38:15;;;;;;;35.22;30.75;;;21.60;99.90;;;;;;5010404;28;20029;-55
2022/06/30 01:40:41;;;;;;;37.15;30.70;;;21.60;99.90;;;;;;5010573;28;20045;-56
2022/06/30 01:43:11;;;;;;;35.85;30.48;;;21.60;99.90;;;;;;5010384;28;20545;-56
2022/06/30 01:45:37;;;;;;;35.42;30.02;;;21.50;99.90;;;;;;5010186;28;20038;-56
2022/06/30 01:48:04;;;;;;;35.08;30.95;;;21.50;99.90;;;;;;5010177;28;20034;-57
2022/06/30 01:50:31;;;;;;;36.10;29.02;;;21.40;99.90;;;;;;5009654;28;20063;-55
2022/06/30 01:52:57;;;;;;;37.13;30.17;;;21.40;99.90;;;;;;5010144;28;20081;-56
2022/06/30 01:55:23;;;;;;;38.17;31.07;;;21.40;99.90;;;;;;5010211;28;20476;-55
2022/06/30 01:57:49;;;;;;;37.83;30.55;;;21.30;99.90;;;;;;5010157;28;20030;-56
2022/06/30 02:00:18;;;;;;;37.10;31.77;;;21.30;99.90;;;;;;5010001;28;20022;-56
2022/06/30 02:02:44;;;;;;;36.75;30.80;;;21.20;99.90;;;;;;5010078;28;20022;-56
2022/06/30 02:05:11;;;;;;;36.85;30.80;;;21.20;99.90;;;;;;5010127;28;20014;-55
2022/06/30 02:07:39;;;;;;;38.47;30.70;;;21.20;99.90;;;;;;5010055;28;20050;-56
2022/06/30 02:10:16;;;;;;;33.78;29.00;;;21.20;99.90;;;;;;5010062;28;20018;-56
2022/06/30 02:12:45;;;;;;;33.47;29.00;;;21.30;99.90;;;;;;5009923;28;20029;-56
2022/06/30 02:15:13;;;;;;;36.75;30.83;;;21.30;99.90;;;;;;5009886;28;20030;-56
2022/06/30 02:17:39;;;;;;;38.58;29.38;;;21.30;99.90;;;;;;5009910;28;20077;-55
2022/06/30 02:20:07;;;;;;;35.53;29.85;;;21.30;99.90;;;;;;5010066;28;20396;-55
2022/06/30 02:22:37;;;;;;;35.85;30.40;;;21.30;99.90;;;;;;5009901;28;20048;-56
2022/06/30 02:25:04;;;;;;;35.03;30.65;;;21.30;99.90;;;;;;4992281;28;20053;-56
2022/06/30 02:27:30;;;;;;;37.22;29.63;;;21.30;99.90;;;;;;5009678;28;20066;-56
2022/06/30 02:29:55;;;;;;;33.63;28.10;;;21.30;99.90;;;;;;5009715;28;20030;-56
2022/06/30 02:32:22;;;;;;;33.92;28.80;;;21.30;99.90;;;;;;5009754;28;20401;-56
2022/06/30 02:34:48;;;;;;;35.15;28.33;;;21.20;99.90;;;;;;5009876;28;20249;-55
2022/06/30 02:37:14;;;;;;;32.88;28.90;;;21.30;99.90;;;;;;5009038;28;20549;-57
2022/06/30 02:39:40;;;;;;;35.70;29.20;;;21.20;99.90;;;;;;5004702;28;20165;-55
2022/06/30 02:42:06;;;;;;;42.50;29.98;;;21.20;99.90;;;;;;4996246;28;20030;-55
2022/06/30 02:44:32;;;;;;;39.05;29.20;;;21.20;99.90;;;;;;5008166;28;20124;-56
2022/06/30 02:46:58;;;;;;;35.78;29.25;;;21.20;99.90;;;;;;5009593;28;20187;-56
2022/06/30 02:49:23;;;;;;;36.03;29.48;;;21.30;99.90;;;;;;5009458;28;20100;-55
2022/06/30 02:51:50;;;;;;;36.17;29.80;;;21.30;99.90;;;;;;5009586;28;20034;-56
2022/06/30 02:54:15;;;;;;;36.40;30.05;;;21.10;99.90;;;;;;5009306;28;20026;-56
2022/06/30 02:56:41;;;;;;;34.80;29.38;;;21.10;99.90;;;;;;5008561;28;20492;-56
2022/06/30 02:59:08;;;;;;;36.25;26.98;;;21.10;99.90;;;;;;5009713;28;20035;-57
2022/06/30 03:01:34;;;;;;;34.60;29.83;;;21.10;99.90;;;;;;5012081;28;20026;-56
2022/06/30 03:04:02;;;;;;;35.92;30.15;;;21.10;99.90;;;;;;5013142;28;20112;-55
2022/06/30 03:06:29;;;;;;;34.22;29.50;;;21.20;99.90;;;;;;5012987;28;20026;-56
2022/06/30 03:08:56;;;;;;;33.60;29.33;;;21.20;99.90;;;;;;5012934;28;20062;-57
2022/06/30 03:11:22;;;;;;;42.28;30.58;;;21.20;99.90;;;;;;5013271;28;20037;-56
2022/06/30 03:13:48;;;;;;;42.50;31.77;;;21.00;99.90;;;;;;5012898;28;20107;-56
2022/06/30 03:16:14;;;;;;;46.38;29.63;;;21.10;99.90;;;;;;5012728;28;20108;-56
2022/06/30 03:18:40;;;;;;;44.05;31.58;;;21.00;99.90;;;;;;5012926;28;20049;-55
2022/06/30 03:21:07;;;;;;;41.35;31.60;;;21.10;99.90;;;;;;5013006;28;20405;-56
2022/06/30 03:23:33;;;;;;;40.10;31.15;;;21.00;99.90;;;;;;5012577;28;20029;-55
2022/06/30 03:25:59;;;;;;;43.58;31.45;;;21.00;99.90;;;;;;5012236;28;20056;-56
2022/06/30 03:28:25;;;;;;;41.97;32.05;;;20.80;99.90;;;;;;5012147;28;20643;-56
2022/06/30 03:30:51;;;;;;;40.05;32.65;;;20.90;99.90;;;;;;5010927;28;20030;-56
2022/06/30 03:33:18;;;;;;;43.42;33.22;;;20.90;99.90;;;;;;5012708;28;20034;-56
2022/06/30 03:35:44;;;;;;;50.53;35.33;;;20.90;99.90;;;;;;5012665;28;20026;-56
2022/06/30 03:38:11;;;;;;;43.30;33.97;;;20.90;99.90;;;;;;4994729;28;20033;-56
2022/06/30 03:40:37;;;;;;;38.20;32.58;;;21.00;99.90;;;;;;5012377;28;20026;-55
2022/06/30 03:43:03;;;;;;;41.30;33.35;;;21.00;99.90;;;;;;5012559;28;20448;-56
2022/06/30 03:45:29;;;;;;;58.67;34.58;;;21.00;99.90;;;;;;5012357;28;20477;-56
2022/06/30 03:47:54;;;;;;;47.13;37.67;;;21.10;99.90;;;;;;5012174;28;20042;-56
2022/06/30 03:50:20;;;;;;;48.70;34.75;;;21.10;99.90;;;;;;5012326;28;20083;-56
2022/06/30 03:52:46;;;;;;;40.60;34.08;;;21.10;99.90;;;;;;5012021;28;20784;-56
2022/06/30 03:55:13;;;;;;;48.45;34.20;;;21.20;99.90;;;;;;5012430;28;20034;-55
2022/06/30 03:57:39;;;;;;;39.20;32.13;;;21.30;99.90;;;;;;5012073;28;20034;-55
2022/06/30 04:00:06;;;;;;;41.30;33.28;;;21.40;99.90;;;;;;5012155;28;20029;-56
2022/06/30 04:02:32;;;;;;;39.08;34.13;;;21.30;99.90;;;;;;5006161;28;20066;-56
2022/06/30 04:04:58;;;;;;;42.08;33.35;;;21.30;99.90;;;;;;5011928;28;20046;-55
2022/06/30 04:07:24;;;;;;;43.53;32.45;;;21.30;99.90;;;;;;5011621;28;20038;-56
2022/06/30 04:09:50;;;;;;;39.83;33.58;;;21.40;99.90;;;;;;5012241;28;20041;-56
2022/06/30 04:12:16;;;;;;;42.15;33.35;;;21.40;99.90;;;;;;4995723;28;20027;-56
2022/06/30 04:14:41;;;;;;;45.65;34.20;;;21.40;99.90;;;;;;5001475;28;20099;-56
2022/06/30 04:17:07;;;;;;;36.85;32.90;;;21.50;99.90;;;;;;5011936;28;20022;-56
2022/06/30 04:19:34;;;;;;;38.88;32.03;;;21.60;99.90;;;;;;5011796;28;20029;-56
2022/06/30 04:22:00;;;;;;;37.83;33.57;;;21.60;99.90;;;;;;5011430;28;20030;-57
2022/06/30 04:24:25;;;;;;;41.28;33.08;;;21.60;99.90;;;;;;5011748;28;20058;-56
2022/06/30 04:26:51;;;;;;;37.28;31.40;;;21.60;99.90;;;;;;5011815;28;20036;-55
2022/06/30 04:29:17;;;;;;;41.65;32.80;;;21.60;99.90;;;;;;5011663;28;20441;-56
2022/06/30 04:34:27;;;;;;;41.05;33.60;;;21.70;99.90;;;;;;5011668;28;20088;-57
2022/06/30 04:36:53;;;;;;;45.42;32.03;;;21.80;99.90;;;;;;5011838;28;20038;-56
2022/06/30 04:39:18;;;;;;;34.83;31.05;;;21.80;99.90;;;;;;5011293;28;20405;-55
2022/06/30 04:41:44;;;;;;;40.67;34.90;;;21.90;99.90;;;;;;5010798;28;20114;-56
2022/06/30 04:44:10;;;;;;;44.05;36.30;;;21.90;99.90;;;;;;5011332;28;20025;-56
2022/06/30 04:46:35;;;;;;;45.65;37.53;;;21.90;99.90;;;;;;5011151;28;20045;-55
2022/06/30 04:49:01;;;;;;;42.83;35.95;;;22.00;99.90;;;;;;5011128;28;20060;-56
2022/06/30 04:51:27;;;;;;;39.60;35.33;;;22.10;99.90;;;;;;5010762;28;20026;-56
2022/06/30 04:53:53;;;;;;;40.25;34.15;;;22.10;99.90;;;;;;5011165;28;20053;-56
2022/06/30 04:56:19;;;;;;;41.50;34.20;;;22.20;99.90;;;;;;5010957;28;20022;-56
2022/06/30 04:58:45;;;;;;;50.40;36.25;;;22.20;99.90;;;;;;5011479;28;20034;-56
2022/06/30 05:01:12;;;;;;;40.90;36.03;;;22.30;99.90;;;;;;5011057;28;20360;-60
2022/06/30 05:03:38;;;;;;;39.20;33.92;;;22.30;99.90;;;;;;5010825;28;20037;-55
2022/06/30 05:06:05;;;;;;;43.05;35.40;;;22.40;99.90;;;;;;5010917;28;20588;-55
2022/06/30 05:08:31;;;;;;;43.45;33.58;;;22.50;99.90;;;;;;5010889;28;20038;-56
2022/06/30 05:10:57;;;;;;;37.70;33.60;;;22.60;99.90;;;;;;5010883;28;20065;-55
2022/06/30 05:13:23;;;;;;;36.70;32.67;;;22.60;99.90;;;;;;5010768;28;20771;-57
2022/06/30 05:15:49;;;;;;;42.25;33.47;;;22.70;99.90;;;;;;5010672;28;20022;-55
2022/06/30 05:18:15;;;;;;;38.85;33.00;;;22.60;99.90;;;;;;5010682;28;20425;-56
2022/06/30 05:20:41;;;;;;;38.60;32.75;;;22.70;99.90;;;;;;5010607;28;20029;-56
2022/06/30 05:23:08;;;;;;;42.47;35.03;;;22.80;99.90;;;;;;5010497;28;20026;-58
2022/06/30 05:28:18;;;;;;;38.28;31.30;;;22.80;99.90;;;;;;5010392;28;20085;-57
2022/06/30 05:30:44;;;;;;;35.70;30.13;;;22.90;99.90;;;;;;5010371;28;20038;-55
2022/06/30 05:33:10;;;;;;;35.30;29.88;;;23.00;99.90;;;;;;5010522;28;20026;-56
2022/06/30 05:35:36;;;;;;;37.30;29.95;;;23.00;99.90;;;;;;5010528;28;20029;-55
2022/06/30 05:38:02;;;;;;;38.40;30.73;;;23.10;99.90;;;;;;5010458;28;20030;-55
2022/06/30 05:40:29;;;;;;;32.58;27.67;;;23.10;99.90;;;;;;5010426;28;20203;-56
2022/06/30 05:42:55;;;;;;;53.13;31.00;;;23.20;99.90;;;;;;5010338;28;20119;-56
2022/06/30 05:45:20;;;;;;;38.42;29.27;;;23.30;99.90;;;;;;5009922;28;20109;-57
2022/06/30 05:47:51;;;;;;;37.92;30.00;;;23.30;99.90;;;;;;5008980;28;20034;-56
2022/06/30 05:50:21;;;;;;;38.28;32.38;;;23.30;99.90;;;;;;5010534;28;20033;-55
2022/06/30 05:52:50;;;;;;;41.75;30.95;;;23.40;99.90;;;;;;4992239;28;20543;-58
2022/06/30 05:55:16;;;;;;;38.47;31.98;;;23.40;99.90;;;;;;5009949;28;20033;-56
2022/06/30 05:58:08;;;;;;;33.15;28.85;;;23.40;99.90;;;;;;5010068;28;20033;-56
2022/06/30 06:00:34;;;;;;;36.17;28.02;;;23.50;99.90;;;;;;5005660;28;20030;-56
2022/06/30 06:03:00;;;;;;;33.42;27.48;;;23.50;99.90;;;;;;5007448;28;20033;-57
2022/06/30 06:05:26;;;;;;;33.35;28.40;;;23.50;99.90;;;;;;5008787;28;20037;-56
2022/06/30 06:07:52;;;;;;;35.95;29.85;;;23.50;99.90;;;;;;5009709;28;20037;-56
2022/06/30 06:10:18;;;;;;;32.72;27.88;;;23.50;99.90;;;;;;5008576;28;20132;-56
2022/06/30 06:12:46;;;;;;;32.13;27.40;;;23.60;99.90;;;;;;5009128;28;20537;-57
2022/06/30 06:15:13;;;;;;;32.90;27.45;;;23.60;99.90;;;;;;5008492;28;20030;-56
2022/06/30 06:17:44;;;;;;;34.42;28.85;;;23.60;99.90;;;;;;5008220;28;20753;-56
2022/06/30 06:20:11;;;;;;;36.05;29.02;;;23.60;99.90;;;;;;5007902;28;20057;-56
2022/06/30 06:22:37;;;;;;;32.80;27.90;;;23.70;99.90;;;;;;5006074;28;20477;-58
2022/06/30 06:25:03;;;;;;;31.75;27.52;;;23.70;99.90;;;;;;5008685;28;20036;-59
2022/06/30 06:27:29;;;;;;;35.27;29.50;;;23.70;99.90;;;;;;5008863;28;20768;-57
2022/06/30 06:29:55;;;;;;;37.00;31.02;;;23.80;99.90;;;;;;5010040;28;20076;-58
2022/06/30 06:32:22;;;;;;;37.65;31.38;;;23.90;99.90;;;;;;5009772;28;20030;-57
2022/06/30 06:34:48;;;;;;;;;;;23.90;99.90;;;;;;5010398;28;20038;-56
2022/06/30 06:37:13;;;;;;;35.67;31.23;;;24.00;99.90;;;;;;5012038;28;19905;-57
2022/06/30 06:39:39;;;;;;;38.95;30.67;;;24.10;99.90;;;;;;5013561;28;20113;-57
2022/06/30 06:42:08;;;;;;;39.72;32.17;;;24.20;99.90;;;;;;5009613;28;20038;-56
2022/06/30 06:44:34;;;;;;;37.30;29.33;;;24.20;99.90;;;;;;5004149;28;20023;-57
2022/06/30 06:47:00;;;;;;;35.53;27.83;;;24.30;99.90;;;;;;4999276;28;20429;-57
2022/06/30 06:49:27;;;;;;;34.90;29.50;;;24.40;99.90;;;;;;5003385;28;20026;-55
2022/06/30 06:51:53;;;;;;;33.13;28.80;;;24.50;99.90;;;;;;5003808;28;20121;-53
2022/06/30 06:54:19;;;;;;;30.85;27.00;;;24.60;99.90;;;;;;5003425;28;20478;-55
2022/06/30 06:56:44;;;;;;;30.02;26.77;;;25.20;99.90;;;;;;5007372;28;20053;-55
2022/06/30 06:59:11;;;;;;;32.17;26.50;;;25.70;99.90;;;;;;5004301;28;20478;-56
2022/06/30 07:01:37;;;;;;;34.20;27.60;;;25.60;99.90;;;;;;5004233;28;20034;-55
2022/06/30 07:04:03;;;;;;;34.47;28.00;;;25.20;99.90;;;;;;5003765;28;20104;-55
2022/06/30 07:06:29;;;;;;;32.67;27.48;;;25.30;99.90;;;;;;5002166;28;20553;-56
2022/06/30 07:08:55;;;;;;;31.88;27.67;;;25.20;99.90;;;;;;5001522;28;20512;-56
2022/06/30 07:11:21;;;;;;;35.60;29.70;;;25.20;99.90;;;;;;5001747;28;20022;-57
2022/06/30 07:13:47;;;;;;;30.52;27.20;;;25.10;99.90;;;;;;5004322;28;20030;-55
2022/06/30 07:16:13;;;;;;;34.90;30.42;;;25.20;99.90;;;;;;5001406;28;20043;-55
2022/06/30 07:18:38;;;;;;;33.83;28.73;;;25.20;99.90;;;;;;5002945;28;20107;-56
2022/06/30 07:21:04;;;;;;;38.60;28.65;;;25.20;99.90;;;;;;5000131;28;20022;-57
2022/06/30 07:23:30;;;;;;;32.35;27.83;;;26.10;99.90;;;;;;5001266;28;20039;-55
2022/06/30 07:25:56;;;;;;;35.67;29.92;;;25.90;99.90;;;;;;5003050;28;20057;-55
2022/06/30 07:28:21;;;;;;;37.20;28.30;;;25.80;99.90;;;;;;5001033;28;20062;-55
2022/06/30 07:30:47;;;;;;;33.88;28.80;;;25.80;99.90;;;;;;5009889;28;20026;-56
2022/06/30 07:33:13;;;;;;;32.45;26.92;;;25.90;99.90;;;;;;5004683;28;20482;-55
2022/06/30 07:35:39;;;;;;;34.50;29.38;;;25.90;99.90;;;;;;5007657;28;20161;-56
2022/06/30 07:38:04;;;;;;;33.70;29.35;;;26.00;99.90;;;;;;5009678;28;20026;-57
2022/06/30 07:40:30;;;;;;;31.77;27.08;;;25.90;99.90;;;;;;5009526;28;20010;-56
2022/06/30 07:42:56;;;;;;;37.13;27.60;;;26.10;99.90;;;;;;5009704;28;20484;-56
2022/06/30 07:45:22;;;;;;;33.50;26.75;;;26.10;99.90;;;;;;5006837;28;20077;-56
2022/06/30 07:47:49;;;;;;;30.83;27.17;;;26.20;99.90;;;;;;4999189;28;20089;-55
2022/06/30 07:50:17;;;;;;;46.22;28.10;;;26.30;99.90;;;;;;5000774;28;20482;-57
2022/06/30 07:52:44;;;;;;;30.33;26.92;;;26.30;99.90;;;;;;5001817;28;20053;-56
2022/06/30 07:55:09;;;;;;;31.90;26.58;;;26.50;99.90;;;;;;5000375;28;20057;-56
2022/06/30 07:57:42;;;;;;;33.38;25.90;;;26.70;99.90;;;;;;4998631;28;20058;-56
2022/06/30 08:00:09;;;;;;;31.80;28.13;;;26.70;99.90;;;;;;4995151;28;20100;-56
2022/06/30 08:02:34;;;;;;;33.75;27.35;;;26.80;99.90;;;;;;5000522;28;20028;-56
2022/06/30 08:05:00;;;;;;;33.58;27.70;;;26.70;99.90;;;;;;4998566;28;20037;-56
2022/06/30 08:07:26;;;;;;;28.90;25.92;;;26.70;99.90;;;;;;5001785;28;20072;-56
2022/06/30 08:09:52;;;;;;;33.42;25.27;;;26.80;99.90;;;;;;5000287;28;20102;-55
2022/06/30 08:12:17;;;;;;;30.85;24.73;;;26.90;99.90;;;;;;4999935;28;20041;-56
2022/06/30 08:14:43;;;;;;;35.90;25.25;;;27.00;99.90;;;;;;5001360;28;20018;-56
2022/06/30 08:17:09;;;;;;;30.50;24.48;;;27.00;99.90;;;;;;4999467;28;20022;-56
2022/06/30 08:19:35;;;;;;;33.47;25.08;;;27.20;99.90;;;;;;5000298;28;20033;-55
2022/06/30 08:22:01;;;;;;;27.02;24.10;;;27.20;99.90;;;;;;5001530;28;20022;-55
2022/06/30 08:24:27;;;;;;;25.40;22.35;;;27.20;99.90;;;;;;4999264;28;20100;-56
2022/06/30 08:26:53;;;;;;;28.77;23.58;;;27.20;99.90;;;;;;5000694;28;20040;-55
2022/06/30 08:29:18;;;;;;;26.73;23.98;;;27.40;99.90;;;;;;5000661;28;20113;-56
2022/06/30 08:31:44;;;;;;;32.67;24.08;;;27.30;99.90;;;;;;5000653;28;20022;-55
2022/06/30 08:34:10;;;;;;;25.48;22.52;;;27.30;99.90;;;;;;4993815;28;20030;-56
2022/06/30 08:36:36;;;;;;;25.98;21.92;;;27.50;99.90;;;;;;4992246;28;20113;-57
2022/06/30 08:39:03;;;;;;;26.80;22.85;;;27.60;99.90;;;;;;4991051;28;20030;-56
2022/06/30 08:44:18;;;;;;;27.15;23.38;;;27.80;99.90;;;;;;4992364;28;20541;-56
2022/06/30 08:46:45;;;;;;;27.63;21.95;;;27.80;99.90;;;;;;4992059;28;20064;-56
2022/06/30 08:49:11;;;;;;;24.75;22.05;;;27.90;99.90;;;;;;4991929;28;20030;-56
2022/06/30 08:51:39;;;;;;;28.70;20.25;;;28.10;99.90;;;;;;4996596;28;20026;-55
2022/06/30 08:54:06;;;;;;;26.63;22.70;;;28.10;99.90;;;;;;4993094;28;20037;-57
2022/06/30 08:56:36;;;;;;;25.45;21.90;;;28.20;99.90;;;;;;4995789;28;20027;-56
2022/06/30 08:59:04;;;;;;;25.63;21.90;;;28.20;99.90;;;;;;5000092;28;20561;-55
2022/06/30 09:01:30;;;;;;;23.85;21.02;;;28.40;99.90;;;;;;4997156;28;20026;-55
2022/06/30 09:03:56;;;;;;;25.08;20.02;;;28.30;99.90;;;;;;5008440;28;20080;-57
2022/06/30 09:06:24;;;;;;;25.58;20.92;;;28.40;99.90;;;;;;5011351;28;20216;-56
2022/06/30 09:08:50;;;;;;;28.00;21.30;;;28.50;99.90;;;;;;5006965;28;20048;-57
2022/06/30 09:11:16;;;;;;;28.83;22.13;;;28.50;99.90;;;;;;5010605;28;20485;-56
2022/06/30 09:13:48;;;;;;;25.45;20.85;;;28.50;99.90;;;;;;5000452;28;20026;-57
2022/06/30 09:16:17;;;;;;;30.65;22.77;;;28.40;99.90;;;;;;4971663;28;20117;-56
2022/06/30 09:18:44;;;;;;;25.42;22.73;;;28.60;99.90;;;;;;4973722;28;20026;-57
2022/06/30 09:21:18;;;;;;;26.55;22.98;;;28.70;99.90;;;;;;4984525;28;20463;-58
2022/06/30 09:23:46;;;;;;;27.60;21.63;;;28.70;99.90;;;;;;4975140;28;20030;-56
2022/06/30 09:26:22;;;;;;;24.10;21.55;;;29.00;99.90;;;;;;4998718;28;20060;-56
2022/06/30 09:28:56;;;;;;;31.50;23.00;;;29.00;99.90;;;;;;4996269;28;20126;-59
2022/06/30 09:31:31;;;;;;;25.50;22.85;;;29.10;99.90;;;;;;4998594;28;20023;-54
2022/06/30 09:34:18;;;;;;;29.90;24.10;;;29.00;99.90;;;;;;4982233;28;20451;-55
2022/06/30 09:36:45;;;;;;;30.48;22.23;;;29.00;99.90;;;;;;5000476;28;20363;-55
2022/06/30 09:39:13;;;;;;;26.27;21.55;;;29.10;99.90;;;;;;5000036;28;20524;-55
2022/06/30 09:41:41;;;;;;;23.73;20.40;;;29.00;99.90;;;;;;4998419;28;20038;-55
2022/06/30 09:44:17;;;;;;;20.45;18.00;;;29.30;99.90;;;;;;4987505;28;20037;-56
2022/06/30 09:47:01;;;;;;;30.25;18.13;;;29.60;99.90;;;;;;4992906;28;20026;-55
2022/06/30 09:49:49;;;;;;;21.33;14.98;;;29.90;99.90;;;;;;4998518;28;20140;-56
2022/06/30 09:55:52;;;;;;;16.85;15.02;;;30.30;99.90;;;;;;4971397;28;20450;-54
2022/06/30 09:58:30;;;;;;;20.35;15.23;;;30.60;99.90;;;;;;4981622;28;20390;-54
2022/06/30 10:00:59;;;;;;;;;;;30.80;99.90;;;;;;5000779;28;20025;-54
2022/06/30 10:03:25;;;;;;;20.92;15.18;;;31.20;97.50;;;;;;4999834;28;19905;-55
2022/06/30 10:06:12;;;;;;;17.73;14.95;;;31.20;98.50;;;;;;4995391;28;20022;-56
2022/06/30 10:08:38;;;;;;;17.57;15.47;;;31.20;98.30;;;;;;4995964;28;20104;-56
2022/06/30 10:11:05;;;;;;;20.53;16.43;;;31.30;96.10;;;;;;5001579;28;20416;-56
2022/06/30 10:13:36;;;;;;;24.52;16.60;;;31.70;96.80;;;;;;5009962;28;20041;-57
2022/06/30 10:16:04;;;;;;;20.58;15.25;;;31.90;94.40;;;;;;5003913;28;20026;-55
2022/06/30 10:18:32;;;;;;;20.95;16.35;;;32.30;97.10;;;;;;5003085;28;20031;-56
2022/06/30 10:20:58;;;;;;;20.08;17.10;;;32.90;93.00;;;;;;4999352;28;20469;-57
2022/06/30 10:23:24;;;;;;;21.17;17.87;;;32.90;93.40;;;;;;5000861;28;20031;-56
2022/06/30 10:25:52;;;;;;;24.60;18.33;;;32.90;92.50;;;;;;4998618;28;20054;-56
2022/06/30 10:28:23;;;;;;;26.33;17.75;;;33.10;94.00;;;;;;4996434;28;20042;-58
2022/06/30 10:30:48;;;;;;;29.58;19.58;;;33.30;94.40;;;;;;4989522;28;20030;-56
2022/06/30 10:33:45;;;;;;;23.50;18.63;;;33.10;93.80;;;;;;5009535;28;20029;-56
2022/06/30 10:36:25;;;;;;;22.10;17.08;;;32.90;93.20;;;;;;4987003;28;20031;-56
2022/06/30 10:38:54;;;;;;;24.73;17.83;;;33.00;90.90;;;;;;4981445;28;20030;-55
2022/06/30 10:41:23;;;;;;;20.55;16.65;;;33.00;92.80;;;;;;5009880;28;20053;-56
2022/06/30 10:44:04;;;;;;;19.58;16.92;;;32.70;90.70;;;;;;5002103;28;20037;-56
2022/06/30 10:46:56;;;;;;;26.17;17.33;;;33.00;93.20;;;;;;4990210;28;20489;-56
2022/06/30 10:49:24;;;;;;;21.52;15.55;;;33.10;89.40;;;;;;4993615;28;20038;-56
2022/06/30 10:51:54;;;;;;;18.27;15.63;;;33.50;90.60;;;;;;4996470;28;20141;-56
2022/06/30 10:54:31;;;;;;;14.55;12.55;;;33.60;84.30;;;;;;5000528;28;20056;-56
2022/06/30 10:56:59;;;;;;;18.17;12.48;;;33.70;84.90;;;;;;4997314;28;20037;-57
2022/06/30 10:59:34;;;;;;;14.90;13.02;;;33.80;79.70;;;;;;4998626;28;20031;-56
2022/06/30 11:02:09;;;;;;;14.32;12.02;;;33.40;81.10;;;;;;4972097;28;20030;-56
2022/06/30 11:04:35;;;;;;;21.45;14.35;;;34.10;82.70;;;;;;5001185;28;20025;-56
2022/06/30 11:07:27;;;;;;;15.20;12.68;;;34.10;83.00;;;;;;4987074;28;20382;-55
2022/06/30 11:09:55;;;;;;;14.32;12.88;;;34.10;81.20;;;;;;4996293;28;20038;-56
2022/06/30 11:12:31;;;;;;;15.32;12.30;;;34.30;83.00;;;;;;4981254;28;20040;-56
2022/06/30 11:14:58;;;;;;;15.43;11.70;;;34.40;79.70;;;;;;4970691;28;20054;-55
2022/06/30 11:17:26;;;;;;;12.63;8.57;;;34.10;75.20;;;;;;4970498;28;20089;-55
2022/06/30 11:20:06;;;;;;;12.50;9.93;;;34.30;73.60;;;;;;4970791;28;20432;-56
2022/06/30 11:22:32;;;;;;;15.73;10.23;;;34.70;78.10;;;;;;4971449;28;20034;-57
2022/06/30 11:25:02;;;;;;;11.20;8.30;;;35.20;78.00;;;;;;4974128;28;20027;-59
2022/06/30 11:27:29;;;;;;;14.73;8.07;;;35.80;69.40;;;;;;4973756;28;20376;-57
2022/06/30 11:29:59;;;;;;;9.55;7.85;;;35.80;69.40;;;;;;4996235;28;20118;-56
2022/06/30 11:32:26;;;;;;;12.65;6.90;;;36.00;68.30;;;;;;5000651;28;20069;-55
2022/06/30 11:34:53;;;;;;;8.00;7.20;;;36.40;68.00;;;;;;5004043;28;20045;-55
2022/06/30 11:37:22;;;;;;;;;;;36.90;66.60;;;;;;5007157;28;20080;-56
2022/06/30 11:39:55;;;;;;;10.43;7.90;;;36.70;64.40;;;;;;5001821;28;19916;-56
2022/06/30 11:42:21;;;;;;;13.45;8.27;;;36.70;67.10;;;;;;5000446;28;20060;-57
2022/06/30 11:44:46;;;;;;;15.03;9.13;;;36.70;61.80;;;;;;5002950;28;20057;-55
2022/06/30 11:47:16;;;;;;;10.17;8.40;;;36.50;65.40;;;;;;5003251;28;20121;-55
2022/06/30 11:49:53;;;;;;;15.32;9.43;;;37.10;66.40;;;;;;5001132;28;20041;-56
2022/06/30 11:52:31;;;;;;;11.20;8.80;;;37.30;67.80;;;;;;4992981;28;20050;-57
2022/06/30 11:55:17;;;;;;;14.15;8.88;;;37.30;62.80;;;;;;4992961;28;20434;-57
2022/06/30 11:57:48;;;;;;;14.18;9.55;;;37.60;62.70;;;;;;4998521;28;20022;-56
2022/06/30 12:00:16;;;;;;;16.50;10.00;;;37.80;61.80;;;;;;5012313;28;20029;-57
2022/06/30 12:02:43;;;;;;;10.68;9.20;;;38.00;62.60;;;;;;5002399;28;20619;-57
2022/06/30 12:05:13;;;;;;;11.30;9.30;;;38.30;61.20;;;;;;5002759;28;20062;-56
2022/06/30 12:07:39;;;;;;;13.57;9.68;;;38.30;57.90;;;;;;5000623;28;20069;-57
2022/06/30 12:10:07;;;;;;;13.57;9.93;;;38.40;60.60;;;;;;4995622;28;20034;-55
2022/06/30 12:12:35;;;;;;;14.23;9.98;;;38.60;62.10;;;;;;4984331;28;20038;-55
2022/06/30 12:15:12;;;;;;;13.60;10.45;;;38.60;59.20;;;;;;4992764;28;20026;-58
2022/06/30 12:17:52;;;;;;;;;;;38.50;60.10;;;;;;4974973;28;20058;-56
2022/06/30 12:20:20;;;;;;;14.07;10.60;;;38.10;58.50;;;;;;4994480;28;20004;-56
2022/06/30 12:22:47;;;;;;;19.58;10.90;;;37.70;59.40;;;;;;4999840;28;20022;-56
2022/06/30 12:25:15;;;;;;;12.98;9.60;;;38.10;60.00;;;;;;5002135;28;20494;-57
2022/06/30 12:27:45;;;;;;;13.75;10.13;;;38.20;58.00;;;;;;5000226;28;20564;-57
2022/06/30 12:30:16;;;;;;;16.83;10.88;;;38.20;59.60;;;;;;5003279;28;20041;-56
2022/06/30 12:32:42;;;;;;;10.18;8.98;;;38.30;60.70;;;;;;4986242;28;20041;-56
2022/06/30 12:35:10;;;;;;;11.23;10.13;;;38.20;59.70;;;;;;4997978;28;20026;-56
2022/06/30 12:37:41;;;;;;;12.98;10.13;;;38.00;58.80;;;;;;4983452;28;20097;-57
2022/06/30 12:40:11;;;;;;;13.77;9.55;;;37.70;59.70;;;;;;4980006;28;20034;-57
2022/06/30 12:42:40;;;;;;;18.90;10.45;;;37.80;59.00;;;;;;4992463;28;20114;-57
2022/06/30 12:45:06;;;;;;;19.05;10.15;;;37.30;59.50;;;;;;4992013;28;20502;-55